Disclaimer

Please do not use the information listed here in-flight or in-navigation, as they are not provided to us by the airports but are provided by volunteers, so they might be outdated.

Search


Regions


Airport information page

Radio informations:
PERM TAXIING - 121.7 MHz
PERM ATIS - 126.4 MHz

Airport informations:
Latitude: 57° 54' 52.26" N
Longitude: 056° 01' 16.37" E
Elevation: 404 feet - 123 meters
Operating hours: 24 hour operations
Operating agency: Military-civil joint use airport
Timezone: UTC+5(+6DT) - Last Sunday in March to last Sunday in October
Fuel: N/A

Runway information:
03/21 - 10520 x 161 feet< - >3206 x 49 meters

Recent METARs:
USPP 202330Z 24009MPS 9999 -SN OVC011 M04/M05 Q1006 R21/290150 NOSIG RMK QFE744
USPP 210000Z 24008MPS 9999 -SN OVC009 M04/M06 Q1005 R21/290150 NOSIG RMK QFE743
USPP 210030Z 24007MPS 9999 -SN OVC010 M04/M06 Q1005 R21/290150 NOSIG RMK QFE743

Airport on the map: